sensor_id;sensor_type;location;lat;lon;timestamp;pressure;altitude;pressure_sealevel;temperature;humidity
73103;BME280;61294;65.988;29.172;2023-06-10T00:01:50;99641.16;;;1.70;78.42
73103;BME280;61294;65.988;29.172;2023-06-10T00:04:17;99632.31;;;1.66;78.05
73103;BME280;61294;65.988;29.172;2023-06-10T00:06:48;99660.44;;;1.75;78.64
73103;BME280;61294;65.988;29.172;2023-06-10T00:09:15;99643.63;;;1.67;79.15
73103;BME280;61294;65.988;29.172;2023-06-10T00:11:41;99641.75;;;1.64;79.22
73103;BME280;61294;65.988;29.172;2023-06-10T00:14:08;99652.97;;;1.63;79.69
73103;BME280;61294;65.988;29.172;2023-06-10T00:16:34;99638.72;;;1.55;78.98
73103;BME280;61294;65.988;29.172;2023-06-10T00:19:04;99623.59;;;1.46;79.20
73103;BME280;61294;65.988;29.172;2023-06-10T00:21:32;99663.88;;;1.56;80.45
73103;BME280;61294;65.988;29.172;2023-06-10T00:24:06;99637.25;;;1.42;81.22
73103;BME280;61294;65.988;29.172;2023-06-10T00:26:33;99655.13;;;1.54;81.58
73103;BME280;61294;65.988;29.172;2023-06-10T00:28:59;99646.91;;;1.45;80.89
73103;BME280;61294;65.988;29.172;2023-06-10T00:31:25;99638.31;;;1.46;81.30
73103;BME280;61294;65.988;29.172;2023-06-10T00:33:52;99659.88;;;1.45;82.09
73103;BME280;61294;65.988;29.172;2023-06-10T00:36:18;99658.47;;;1.51;81.52
73103;BME280;61294;65.988;29.172;2023-06-10T00:38:47;99660.09;;;1.49;81.84
73103;BME280;61294;65.988;29.172;2023-06-10T00:41:16;99664.53;;;1.52;82.41
73103;BME280;61294;65.988;29.172;2023-06-10T00:43:42;99668.53;;;1.45;82.80
73103;BME280;61294;65.988;29.172;2023-06-10T00:46:14;99657.41;;;1.48;83.14
73103;BME280;61294;65.988;29.172;2023-06-10T00:48:42;99633.97;;;1.28;83.78
73103;BME280;61294;65.988;29.172;2023-06-10T00:51:09;99657.81;;;1.37;84.42
73103;BME280;61294;65.988;29.172;2023-06-10T00:53:40;99668.94;;;1.35;84.56
73103;BME280;61294;65.988;29.172;2023-06-10T00:56:07;99655.59;;;1.27;84.96
73103;BME280;61294;65.988;29.172;2023-06-10T00:58:34;99668.84;;;1.33;84.83
73103;BME280;61294;65.988;29.172;2023-06-10T01:01:00;99665.59;;;1.37;84.49
73103;BME280;61294;65.988;29.172;2023-06-10T01:03:27;99665.59;;;1.37;84.96
73103;BME280;61294;65.988;29.172;2023-06-10T01:06:18;99670.06;;;1.40;85.61
73103;BME280;61294;65.988;29.172;2023-06-10T01:11:55;99674.91;;;1.34;85.71
73103;BME280;61294;65.988;29.172;2023-06-10T01:14:24;99678.72;;;1.41;85.80
73103;BME280;61294;65.988;29.172;2023-06-10T01:16:51;99676.66;;;1.51;85.24
73103;BME280;61294;65.988;29.172;2023-06-10T01:19:18;99670.25;;;1.45;84.45
73103;BME280;61294;65.988;29.172;2023-06-10T01:21:44;99640.31;;;1.33;84.22
73103;BME280;61294;65.988;29.172;2023-06-10T01:24:14;99646.63;;;1.38;83.48
73103;BME280;61294;65.988;29.172;2023-06-10T01:26:44;99669.75;;;1.52;84.12
73103;BME280;61294;65.988;29.172;2023-06-10T01:29:14;99659.00;;;1.44;83.72
73103;BME280;61294;65.988;29.172;2023-06-10T01:32:03;99671.66;;;1.56;83.63
73103;BME280;61294;65.988;29.172;2023-06-10T01:34:31;99670.88;;;1.57;83.35
73103;BME280;61294;65.988;29.172;2023-06-10T01:36:58;99670.78;;;1.55;83.41
73103;BME280;61294;65.988;29.172;2023-06-10T01:39:25;99689.53;;;1.68;83.21
73103;BME280;61294;65.988;29.172;2023-06-10T01:41:52;99665.00;;;1.61;84.54
73103;BME280;61294;65.988;29.172;2023-06-10T01:44:22;99680.06;;;1.68;85.37
73103;BME280;61294;65.988;29.172;2023-06-10T01:46:51;99682.41;;;1.64;85.75
73103;BME280;61294;65.988;29.172;2023-06-10T01:49:37;99686.13;;;1.69;85.33
73103;BME280;61294;65.988;29.172;2023-06-10T01:52:12;99688.06;;;1.73;85.29
73103;BME280;61294;65.988;29.172;2023-06-10T01:54:38;99687.31;;;1.76;85.85
73103;BME280;61294;65.988;29.172;2023-06-10T01:57:04;99685.59;;;1.76;85.68
73103;BME280;61294;65.988;29.172;2023-06-10T01:59:40;99699.09;;;1.87;85.63
73103;BME280;61294;65.988;29.172;2023-06-10T02:02:09;99695.72;;;1.89;85.50
73103;BME280;61294;65.988;29.172;2023-06-10T02:04:53;99709.78;;;1.93;85.94
73103;BME280;61294;65.988;29.172;2023-06-10T02:07:43;99710.81;;;1.97;86.13
73103;BME280;61294;65.988;29.172;2023-06-10T02:17:26;99712.56;;;2.16;86.10
73103;BME280;61294;65.988;29.172;2023-06-10T03:15:15;99733.88;;;3.27;80.76
73103;BME280;61294;65.988;29.172;2023-06-10T03:18:06;99726.28;;;3.32;80.50
73103;BME280;61294;65.988;29.172;2023-06-10T03:20:33;99731.41;;;3.31;79.99
73103;BME280;61294;65.988;29.172;2023-06-10T03:23:03;99744.81;;;3.40;80.64
73103;BME280;61294;65.988;29.172;2023-06-10T03:25:30;99749.16;;;3.39;79.73
73103;BME280;61294;65.988;29.172;2023-06-10T03:27:56;99745.06;;;3.46;80.02
73103;BME280;61294;65.988;29.172;2023-06-10T03:30:21;99756.63;;;3.53;79.39
73103;BME280;61294;65.988;29.172;2023-06-10T03:32:47;99754.84;;;3.52;79.26
73103;BME280;61294;65.988;29.172;2023-06-10T03:35:14;99748.13;;;3.57;79.23
73103;BME280;61294;65.988;29.172;2023-06-10T03:37:40;99749.41;;;3.67;78.37
73103;BME280;61294;65.988;29.172;2023-06-10T03:40:07;99739.84;;;3.67;78.47
73103;BME280;61294;65.988;29.172;2023-06-10T03:42:34;99733.13;;;3.72;78.98
73103;BME280;61294;65.988;29.172;2023-06-10T03:45:00;99741.13;;;3.77;78.62
73103;BME280;61294;65.988;29.172;2023-06-10T03:47:26;99730.50;;;3.72;78.48
73103;BME280;61294;65.988;29.172;2023-06-10T03:49:52;99751.06;;;3.87;76.63
73103;BME280;61294;65.988;29.172;2023-06-10T03:52:18;99713.09;;;3.71;76.49
73103;BME280;61294;65.988;29.172;2023-06-10T03:54:44;99740.09;;;3.96;75.89
73103;BME280;61294;65.988;29.172;2023-06-10T03:57:09;99746.34;;;4.00;75.80
73103;BME280;61294;65.988;29.172;2023-06-10T03:59:35;99744.28;;;4.13;75.27
73103;BME280;61294;65.988;29.172;2023-06-10T04:02:01;99742.50;;;4.12;75.25
73103;BME280;61294;65.988;29.172;2023-06-10T04:04:27;99743.63;;;4.19;74.84
73103;BME280;61294;65.988;29.172;2023-06-10T04:06:52;99754.88;;;4.41;74.18
73103;BME280;61294;65.988;29.172;2023-06-10T04:09:18;99745.44;;;4.44;74.49
73103;BME280;61294;65.988;29.172;2023-06-10T04:11:44;99750.25;;;4.56;72.94
73103;BME280;61294;65.988;29.172;2023-06-10T04:14:10;99717.44;;;4.40;73.37
73103;BME280;61294;65.988;29.172;2023-06-10T04:16:35;99741.59;;;4.59;72.69
73103;BME280;61294;65.988;29.172;2023-06-10T04:19:01;99709.72;;;4.42;72.52
73103;BME280;61294;65.988;29.172;2023-06-10T04:21:27;99741.91;;;4.66;71.95
73103;BME280;61294;65.988;29.172;2023-06-10T04:23:53;99713.19;;;4.66;71.82
73103;BME280;61294;65.988;29.172;2023-06-10T04:26:19;99729.53;;;4.85;70.80
73103;BME280;61294;65.988;29.172;2023-06-10T04:28:44;99746.31;;;4.92;70.15
73103;BME280;61294;65.988;29.172;2023-06-10T04:31:10;99746.59;;;5.01;69.36
73103;BME280;61294;65.988;29.172;2023-06-10T04:33:37;99736.56;;;4.88;69.95
73103;BME280;61294;65.988;29.172;2023-06-10T04:36:03;99738.06;;;5.05;69.57
73103;BME280;61294;65.988;29.172;2023-06-10T04:38:28;99741.81;;;5.13;68.24
73103;BME280;61294;65.988;29.172;2023-06-10T04:40:56;99736.91;;;5.23;67.71
73103;BME280;61294;65.988;29.172;2023-06-10T04:43:21;99738.25;;;5.37;65.68
73103;BME280;61294;65.988;29.172;2023-06-10T04:45:47;99733.66;;;5.30;66.42
73103;BME280;61294;65.988;29.172;2023-06-10T04:48:13;99733.97;;;5.39;66.45
73103;BME280;61294;65.988;29.172;2023-06-10T04:50:39;99736.66;;;5.41;65.25
73103;BME280;61294;65.988;29.172;2023-06-10T04:53:05;99726.38;;;5.47;64.93
73103;BME280;61294;65.988;29.172;2023-06-10T04:55:33;99707.84;;;5.39;65.58
73103;BME280;61294;65.988;29.172;2023-06-10T04:57:59;99739.72;;;5.55;65.37
73103;BME280;61294;65.988;29.172;2023-06-10T05:00:25;99737.31;;;5.61;65.03
73103;BME280;61294;65.988;29.172;2023-06-10T05:02:51;99742.72;;;5.67;64.20
73103;BME280;61294;65.988;29.172;2023-06-10T05:05:17;99737.50;;;5.67;63.16
73103;BME280;61294;65.988;29.172;2023-06-10T05:07:43;99733.91;;;5.63;63.02
73103;BME280;61294;65.988;29.172;2023-06-10T05:10:09;99740.38;;;5.75;63.23
73103;BME280;61294;65.988;29.172;2023-06-10T05:12:35;99731.63;;;5.74;63.75
73103;BME280;61294;65.988;29.172;2023-06-10T05:15:01;99747.34;;;6.01;64.30
73103;BME280;61294;65.988;29.172;2023-06-10T05:17:27;99741.34;;;6.05;60.93
73103;BME280;61294;65.988;29.172;2023-06-10T05:19:53;99738.19;;;6.16;60.98
73103;BME280;61294;65.988;29.172;2023-06-10T05:22:19;99741.50;;;6.10;62.44
73103;BME280;61294;65.988;29.172;2023-06-10T05:24:45;99740.81;;;6.16;62.48
73103;BME280;61294;65.988;29.172;2023-06-10T05:27:10;99741.78;;;6.19;61.03
73103;BME280;61294;65.988;29.172;2023-06-10T05:29:36;99705.19;;;6.21;60.76
73103;BME280;61294;65.988;29.172;2023-06-10T05:32:02;99729.16;;;6.35;59.49
73103;BME280;61294;65.988;29.172;2023-06-10T05:34:30;99727.91;;;6.52;58.68
73103;BME280;61294;65.988;29.172;2023-06-10T05:36:56;99732.09;;;6.46;59.96
73103;BME280;61294;65.988;29.172;2023-06-10T05:39:22;99723.94;;;6.67;58.46
73103;BME280;61294;65.988;29.172;2023-06-10T05:41:48;99739.63;;;6.65;58.84
73103;BME280;61294;65.988;29.172;2023-06-10T05:44:14;99731.88;;;6.68;59.18
73103;BME280;61294;65.988;29.172;2023-06-10T05:46:40;99739.75;;;6.68;58.58
73103;BME280;61294;65.988;29.172;2023-06-10T05:49:06;99732.91;;;6.75;57.52
73103;BME280;61294;65.988;29.172;2023-06-10T05:51:31;99735.78;;;6.83;58.20
73103;BME280;61294;65.988;29.172;2023-06-10T05:53:57;99738.56;;;6.89;57.64
73103;BME280;61294;65.988;29.172;2023-06-10T05:56:23;99740.00;;;7.11;56.95
73103;BME280;61294;65.988;29.172;2023-06-10T05:58:49;99731.19;;;7.07;57.70
73103;BME280;61294;65.988;29.172;2023-06-10T06:01:14;99743.25;;;7.02;57.23
73103;BME280;61294;65.988;29.172;2023-06-10T06:03:41;99738.25;;;7.10;56.13
73103;BME280;61294;65.988;29.172;2023-06-10T06:06:06;99741.75;;;7.11;57.21
73103;BME280;61294;65.988;29.172;2023-06-10T06:08:32;99732.31;;;7.17;55.20
73103;BME280;61294;65.988;29.172;2023-06-10T06:10:58;99730.59;;;7.18;56.07
73103;BME280;61294;65.988;29.172;2023-06-10T06:13:23;99738.28;;;7.12;55.48
73103;BME280;61294;65.988;29.172;2023-06-10T06:15:50;99725.25;;;7.15;56.18
73103;BME280;61294;65.988;29.172;2023-06-10T06:18:16;99732.66;;;7.30;55.08
73103;BME280;61294;65.988;29.172;2023-06-10T06:20:42;99737.28;;;7.40;54.58
73103;BME280;61294;65.988;29.172;2023-06-10T06:23:07;99738.25;;;7.45;54.15
73103;BME280;61294;65.988;29.172;2023-06-10T06:25:36;99695.06;;;7.29;54.85
73103;BME280;61294;65.988;29.172;2023-06-10T06:28:02;99704.94;;;7.41;54.42
73103;BME280;61294;65.988;29.172;2023-06-10T06:30:28;99723.66;;;7.55;53.58
73103;BME280;61294;65.988;29.172;2023-06-10T06:32:54;99734.19;;;7.56;52.56
73103;BME280;61294;65.988;29.172;2023-06-10T06:35:20;99717.56;;;7.56;53.88
73103;BME280;61294;65.988;29.172;2023-06-10T06:37:46;99713.16;;;7.55;54.69
73103;BME280;61294;65.988;29.172;2023-06-10T06:40:12;99715.88;;;7.59;55.60
73103;BME280;61294;65.988;29.172;2023-06-10T06:42:37;99711.94;;;7.75;53.51
73103;BME280;61294;65.988;29.172;2023-06-10T06:45:03;99715.53;;;7.81;54.08
73103;BME280;61294;65.988;29.172;2023-06-10T06:47:29;99716.53;;;7.86;52.52
73103;BME280;61294;65.988;29.172;2023-06-10T06:49:55;99720.97;;;7.88;53.62
73103;BME280;61294;65.988;29.172;2023-06-10T06:52:21;99714.97;;;7.94;53.85
73103;BME280;61294;65.988;29.172;2023-06-10T06:54:48;99709.00;;;8.00;53.49
73103;BME280;61294;65.988;29.172;2023-06-10T06:57:13;99712.47;;;8.00;52.35
73103;BME280;61294;65.988;29.172;2023-06-10T06:59:39;99706.34;;;7.98;51.47
73103;BME280;61294;65.988;29.172;2023-06-10T07:02:06;99702.63;;;7.90;52.04
73103;BME280;61294;65.988;29.172;2023-06-10T07:04:31;99700.22;;;7.99;53.69
73103;BME280;61294;65.988;29.172;2023-06-10T07:06:57;99710.22;;;8.16;51.79
73103;BME280;61294;65.988;29.172;2023-06-10T07:09:23;99707.34;;;8.05;51.81
73103;BME280;61294;65.988;29.172;2023-06-10T07:11:49;99715.28;;;8.08;52.55
73103;BME280;61294;65.988;29.172;2023-06-10T07:14:14;99708.69;;;8.25;51.40
73103;BME280;61294;65.988;29.172;2023-06-10T07:16:40;99706.03;;;8.24;52.03
73103;BME280;61294;65.988;29.172;2023-06-10T07:19:06;99706.19;;;8.33;51.12
73103;BME280;61294;65.988;29.172;2023-06-10T07:21:31;99706.16;;;8.32;52.06
73103;BME280;61294;65.988;29.172;2023-06-10T07:23:59;99696.84;;;8.44;50.77
73103;BME280;61294;65.988;29.172;2023-06-10T07:26:25;99704.03;;;8.53;50.50
73103;BME280;61294;65.988;29.172;2023-06-10T07:28:51;99706.78;;;8.59;50.63
73103;BME280;61294;65.988;29.172;2023-06-10T07:31:17;99703.34;;;8.63;50.61
73103;BME280;61294;65.988;29.172;2023-06-10T07:33:43;99705.34;;;8.75;50.30
73103;BME280;61294;65.988;29.172;2023-06-10T07:36:09;99691.34;;;8.76;50.31
73103;BME280;61294;65.988;29.172;2023-06-10T07:38:35;99693.13;;;8.77;50.82
73103;BME280;61294;65.988;29.172;2023-06-10T07:41:00;99692.59;;;8.95;48.46
73103;BME280;61294;65.988;29.172;2023-06-10T07:43:26;99697.25;;;9.12;49.95
73103;BME280;61294;65.988;29.172;2023-06-10T07:45:52;99684.94;;;9.08;48.59
73103;BME280;61294;65.988;29.172;2023-06-10T07:48:18;99692.94;;;9.15;48.43
73103;BME280;61294;65.988;29.172;2023-06-10T07:50:43;99686.13;;;9.25;47.67
73103;BME280;61294;65.988;29.172;2023-06-10T07:53:10;99691.69;;;9.44;47.71
73103;BME280;61294;65.988;29.172;2023-06-10T07:55:35;99682.06;;;9.46;47.50
73103;BME280;61294;65.988;29.172;2023-06-10T07:58:01;99683.03;;;9.51;47.89
73103;BME280;61294;65.988;29.172;2023-06-10T08:00:27;99682.50;;;9.74;47.95
73103;BME280;61294;65.988;29.172;2023-06-10T08:02:52;99703.66;;;9.80;48.10
73103;BME280;61294;65.988;29.172;2023-06-10T08:05:18;99683.16;;;9.60;47.53
73103;BME280;61294;65.988;29.172;2023-06-10T08:07:44;99685.94;;;9.68;48.53
73103;BME280;61294;65.988;29.172;2023-06-10T08:10:10;99696.69;;;9.83;47.13
73103;BME280;61294;65.988;29.172;2023-06-10T08:12:36;99680.00;;;9.83;46.90
73103;BME280;61294;65.988;29.172;2023-06-10T08:15:02;99682.06;;;10.04;47.56
73103;BME280;61294;65.988;29.172;2023-06-10T08:17:31;99684.16;;;10.28;46.14
73103;BME280;61294;65.988;29.172;2023-06-10T08:19:57;99683.38;;;10.34;45.53
73103;BME280;61294;65.988;29.172;2023-06-10T08:22:23;99682.84;;;10.63;44.61
73103;BME280;61294;65.988;29.172;2023-06-10T08:24:48;99688.09;;;10.63;45.67
73103;BME280;61294;65.988;29.172;2023-06-10T08:27:14;99699.66;;;10.76;45.47
73103;BME280;61294;65.988;29.172;2023-06-10T08:29:40;99669.63;;;10.58;44.56
73103;BME280;61294;65.988;29.172;2023-06-10T08:32:06;99684.69;;;10.71;45.09
73103;BME280;61294;65.988;29.172;2023-06-10T08:34:35;99677.59;;;10.64;44.64
73103;BME280;61294;65.988;29.172;2023-06-10T08:37:03;99678.81;;;10.97;43.43
73103;BME280;61294;65.988;29.172;2023-06-10T08:39:29;99671.13;;;11.19;44.09
73103;BME280;61294;65.988;29.172;2023-06-10T08:42:04;99674.66;;;11.19;43.39
73103;BME280;61294;65.988;29.172;2023-06-10T08:44:35;99676.56;;;11.37;42.88
73103;BME280;61294;65.988;29.172;2023-06-10T08:47:12;99686.22;;;11.38;42.46
73103;BME280;61294;65.988;29.172;2023-06-10T08:49:43;99678.44;;;11.51;42.95
73103;BME280;61294;65.988;29.172;2023-06-10T08:52:13;99678.28;;;11.35;42.28
73103;BME280;61294;65.988;29.172;2023-06-10T08:54:43;99675.00;;;11.64;43.57
73103;BME280;61294;65.988;29.172;2023-06-10T08:57:09;99670.75;;;11.83;43.04
73103;BME280;61294;65.988;29.172;2023-06-10T08:59:36;99665.56;;;11.94;42.40
73103;BME280;61294;65.988;29.172;2023-06-10T09:02:02;99670.13;;;12.23;41.46
73103;BME280;61294;65.988;29.172;2023-06-10T09:04:30;99672.72;;;12.12;41.85
73103;BME280;61294;65.988;29.172;2023-06-10T09:06:56;99664.91;;;12.38;41.08
73103;BME280;61294;65.988;29.172;2023-06-10T09:09:23;99676.50;;;12.76;41.33
73103;BME280;61294;65.988;29.172;2023-06-10T09:11:50;99670.41;;;13.14;42.10
73103;BME280;61294;65.988;29.172;2023-06-10T09:14:16;99659.81;;;13.22;42.67
73103;BME280;61294;65.988;29.172;2023-06-10T09:16:42;99665.13;;;13.76;43.05
73103;BME280;61294;65.988;29.172;2023-06-10T09:19:08;99636.94;;;13.50;40.57
73103;BME280;61294;65.988;29.172;2023-06-10T09:21:36;99650.97;;;13.91;42.34
73103;BME280;61294;65.988;29.172;2023-06-10T09:24:02;99644.78;;;14.04;40.60
73103;BME280;61294;65.988;29.172;2023-06-10T09:26:29;99664.16;;;14.19;42.05
73103;BME280;61294;65.988;29.172;2023-06-10T09:29:03;99644.59;;;14.49;40.74
73103;BME280;61294;65.988;29.172;2023-06-10T09:31:31;99649.91;;;14.49;38.71
73103;BME280;61294;65.988;29.172;2023-06-10T09:34:16;99660.50;;;14.57;37.89
73103;BME280;61294;65.988;29.172;2023-06-10T09:36:42;99649.59;;;15.12;37.69
73103;BME280;61294;65.988;29.172;2023-06-10T09:39:18;99641.13;;;15.69;37.50
73103;BME280;61294;65.988;29.172;2023-06-10T09:41:45;99653.22;;;16.01;36.91
73103;BME280;61294;65.988;29.172;2023-06-10T09:44:16;99641.41;;;16.96;34.14
73103;BME280;61294;65.988;29.172;2023-06-10T09:46:42;99642.88;;;15.69;33.95
73103;BME280;61294;65.988;29.172;2023-06-10T09:49:10;99642.41;;;17.98;32.64
73103;BME280;61294;65.988;29.172;2023-06-10T09:51:36;99638.81;;;21.72;26.81
73103;BME280;61294;65.988;29.172;2023-06-10T09:54:05;99645.00;;;24.24;25.06
73103;BME280;61294;65.988;29.172;2023-06-10T09:56:37;99631.03;;;23.74;23.63
73103;BME280;61294;65.988;29.172;2023-06-10T09:59:03;99632.16;;;24.89;22.81
73103;BME280;61294;65.988;29.172;2023-06-10T10:01:31;99629.16;;;27.50;21.80
73103;BME280;61294;65.988;29.172;2023-06-10T10:03:59;99634.47;;;30.71;20.28
73103;BME280;61294;65.988;29.172;2023-06-10T10:06:25;99627.91;;;28.74;19.02
73103;BME280;61294;65.988;29.172;2023-06-10T10:08:51;99625.59;;;29.10;18.49
73103;BME280;61294;65.988;29.172;2023-06-10T10:11:20;99630.06;;;30.06;19.42
73103;BME280;61294;65.988;29.172;2023-06-10T10:13:49;99630.69;;;26.59;19.94
73103;BME280;61294;65.988;29.172;2023-06-10T10:16:18;99631.47;;;28.61;18.95
73103;BME280;61294;65.988;29.172;2023-06-10T10:18:55;99627.34;;;29.93;17.40
73103;BME280;61294;65.988;29.172;2023-06-10T10:21:27;99612.44;;;27.88;17.78
73103;BME280;61294;65.988;29.172;2023-06-10T10:24:05;99615.50;;;28.27;18.35
73103;BME280;61294;65.988;29.172;2023-06-10T10:26:33;99624.09;;;31.50;15.92
73103;BME280;61294;65.988;29.172;2023-06-10T10:29:24;99610.69;;;30.99;16.64
73103;BME280;61294;65.988;29.172;2023-06-10T10:31:51;99618.00;;;30.98;16.29
73103;BME280;61294;65.988;29.172;2023-06-10T10:34:56;99606.34;;;31.58;17.01
73103;BME280;61294;65.988;29.172;2023-06-10T10:37:16;99600.28;;;33.03;16.18
73103;BME280;61294;65.988;29.172;2023-06-10T10:39:42;99603.56;;;32.74;15.41
73103;BME280;61294;65.988;29.172;2023-06-10T10:42:09;99600.47;;;30.53;15.80
73103;BME280;61294;65.988;29.172;2023-06-10T10:44:37;99605.47;;;31.57;17.28
73103;BME280;61294;65.988;29.172;2023-06-10T10:47:03;99598.41;;;28.97;17.81
73103;BME280;61294;65.988;29.172;2023-06-10T10:49:30;99593.75;;;31.79;16.63
73103;BME280;61294;65.988;29.172;2023-06-10T10:51:59;99596.56;;;30.94;15.89
73103;BME280;61294;65.988;29.172;2023-06-10T10:54:33;99588.31;;;30.07;16.21
73103;BME280;61294;65.988;29.172;2023-06-10T10:57:15;99581.16;;;28.71;16.67
73103;BME280;61294;65.988;29.172;2023-06-10T11:00:00;99592.94;;;28.84;17.13
73103;BME280;61294;65.988;29.172;2023-06-10T11:02:33;99591.63;;;27.75;16.90
73103;BME280;61294;65.988;29.172;2023-06-10T11:05:01;99589.72;;;27.91;16.59
73103;BME280;61294;65.988;29.172;2023-06-10T11:07:30;99580.88;;;28.32;16.87
73103;BME280;61294;65.988;29.172;2023-06-10T11:10:06;99590.94;;;27.41;17.98
73103;BME280;61294;65.988;29.172;2023-06-10T11:15:19;99586.47;;;31.80;15.82
73103;BME280;61294;65.988;29.172;2023-06-10T11:18:23;99579.66;;;31.74;15.02
73103;BME280;61294;65.988;29.172;2023-06-10T11:26:20;99572.97;;;24.69;19.46
73103;BME280;61294;65.988;29.172;2023-06-10T11:31:25;99556.22;;;31.36;14.28
73103;BME280;61294;65.988;29.172;2023-06-10T11:34:05;99568.38;;;33.47;14.54
73103;BME280;61294;65.988;29.172;2023-06-10T11:36:33;99573.63;;;33.60;14.21
73103;BME280;61294;65.988;29.172;2023-06-10T11:39:02;99565.03;;;35.29;14.38
73103;BME280;61294;65.988;29.172;2023-06-10T11:41:30;99571.06;;;29.42;16.09
73103;BME280;61294;65.988;29.172;2023-06-10T11:44:00;99547.63;;;30.31;14.73
73103;BME280;61294;65.988;29.172;2023-06-10T11:46:27;99549.31;;;31.43;15.15
73103;BME280;61294;65.988;29.172;2023-06-10T11:48:54;99561.31;;;31.41;14.80
73103;BME280;61294;65.988;29.172;2023-06-10T11:51:20;99552.47;;;33.74;13.67
73103;BME280;61294;65.988;29.172;2023-06-10T11:53:47;99546.09;;;34.15;13.99
73103;BME280;61294;65.988;29.172;2023-06-10T11:56:13;99556.75;;;33.66;13.93
73103;BME280;61294;65.988;29.172;2023-06-10T11:58:43;99534.00;;;33.66;13.77
73103;BME280;61294;65.988;29.172;2023-06-10T12:01:10;99548.16;;;33.92;13.56
73103;BME280;61294;65.988;29.172;2023-06-10T12:03:37;99552.66;;;32.96;14.57
73103;BME280;61294;65.988;29.172;2023-06-10T12:06:06;99537.69;;;32.67;14.43
73103;BME280;61294;65.988;29.172;2023-06-10T12:08:33;99538.00;;;32.42;14.07
73103;BME280;61294;65.988;29.172;2023-06-10T12:10:59;99547.72;;;35.29;14.81
73103;BME280;61294;65.988;29.172;2023-06-10T12:13:28;99540.66;;;34.15;13.84
73103;BME280;61294;65.988;29.172;2023-06-10T12:15:54;99551.47;;;33.21;12.53
73103;BME280;61294;65.988;29.172;2023-06-10T12:18:21;99535.75;;;33.67;13.29
73103;BME280;61294;65.988;29.172;2023-06-10T12:20:48;99530.88;;;34.63;12.18
73103;BME280;61294;65.988;29.172;2023-06-10T12:23:15;99544.59;;;34.73;11.87
73103;BME280;61294;65.988;29.172;2023-06-10T12:25:50;99533.75;;;34.21;13.63
73103;BME280;61294;65.988;29.172;2023-06-10T12:28:22;99537.69;;;31.77;14.72
73103;BME280;61294;65.988;29.172;2023-06-10T12:30:48;99543.13;;;31.06;15.28
73103;BME280;61294;65.988;29.172;2023-06-10T12:33:21;99540.28;;;29.29;15.10
73103;BME280;61294;65.988;29.172;2023-06-10T12:35:52;99537.16;;;29.35;16.08
73103;BME280;61294;65.988;29.172;2023-06-10T12:38:22;99546.38;;;30.98;15.14
73103;BME280;61294;65.988;29.172;2023-06-10T12:40:50;99543.19;;;32.22;14.86
73103;BME280;61294;65.988;29.172;2023-06-10T12:43:34;99526.09;;;31.50;14.10
73103;BME280;61294;65.988;29.172;2023-06-10T12:46:09;99510.19;;;33.99;14.25
73103;BME280;61294;65.988;29.172;2023-06-10T12:48:35;99511.44;;;35.36;13.98
73103;BME280;61294;65.988;29.172;2023-06-10T12:51:01;99536.06;;;32.88;14.34
73103;BME280;61294;65.988;29.172;2023-06-10T12:53:27;99526.09;;;31.50;14.85
73103;BME280;61294;65.988;29.172;2023-06-10T12:55:53;99529.97;;;32.95;14.21
73103;BME280;61294;65.988;29.172;2023-06-10T12:58:22;99534.75;;;32.71;13.95
73103;BME280;61294;65.988;29.172;2023-06-10T13:00:49;99538.31;;;30.22;16.43
73103;BME280;61294;65.988;29.172;2023-06-10T13:03:17;99530.16;;;25.16;18.80
73103;BME280;61294;65.988;29.172;2023-06-10T13:05:43;99540.53;;;24.32;20.41
73103;BME280;61294;65.988;29.172;2023-06-10T13:08:09;99533.72;;;29.58;17.56
73103;BME280;61294;65.988;29.172;2023-06-10T13:10:38;99529.69;;;32.43;15.05
73103;BME280;61294;65.988;29.172;2023-06-10T13:13:03;99522.72;;;32.50;14.22
73103;BME280;61294;65.988;29.172;2023-06-10T13:15:34;99533.31;;;29.65;15.82
73103;BME280;61294;65.988;29.172;2023-06-10T13:18:04;99495.00;;;28.62;16.68
73103;BME280;61294;65.988;29.172;2023-06-10T13:20:30;99531.94;;;29.04;15.92
73103;BME280;61294;65.988;29.172;2023-06-10T13:22:56;99526.31;;;30.88;15.85
73103;BME280;61294;65.988;29.172;2023-06-10T13:25:22;99520.31;;;31.31;15.61
73103;BME280;61294;65.988;29.172;2023-06-10T13:27:48;99515.88;;;25.84;17.90
73103;BME280;61294;65.988;29.172;2023-06-10T13:30:14;99523.47;;;24.71;20.02
73103;BME280;61294;65.988;29.172;2023-06-10T13:32:40;99517.97;;;29.51;17.38
73103;BME280;61294;65.988;29.172;2023-06-10T13:35:06;99520.91;;;30.25;16.04
73103;BME280;61294;65.988;29.172;2023-06-10T13:37:32;99509.78;;;31.26;15.03
73103;BME280;61294;65.988;29.172;2023-06-10T13:39:59;99497.31;;;28.95;15.96
73103;BME280;61294;65.988;29.172;2023-06-10T13:42:24;99495.31;;;28.42;17.12
73103;BME280;61294;65.988;29.172;2023-06-10T13:44:51;99484.06;;;28.07;17.74
73103;BME280;61294;65.988;29.172;2023-06-10T13:47:17;99495.19;;;26.34;17.76
73103;BME280;61294;65.988;29.172;2023-06-10T13:49:43;99510.00;;;24.33;19.24
73103;BME280;61294;65.988;29.172;2023-06-10T13:52:08;99510.91;;;22.67;21.35
73103;BME280;61294;65.988;29.172;2023-06-10T13:54:34;99503.06;;;22.40;22.06
73103;BME280;61294;65.988;29.172;2023-06-10T13:57:03;99480.34;;;22.49;22.97
73103;BME280;61294;65.988;29.172;2023-06-10T13:59:29;99499.09;;;22.93;22.99
73103;BME280;61294;65.988;29.172;2023-06-10T14:01:55;99493.19;;;23.28;22.26
73103;BME280;61294;65.988;29.172;2023-06-10T14:04:22;99495.84;;;22.85;24.12
73103;BME280;61294;65.988;29.172;2023-06-10T14:06:47;99495.41;;;22.96;23.13
73103;BME280;61294;65.988;29.172;2023-06-10T14:09:13;99482.19;;;21.52;22.75
73103;BME280;61294;65.988;29.172;2023-06-10T14:11:39;99504.56;;;21.77;23.07
73103;BME280;61294;65.988;29.172;2023-06-10T14:14:05;99498.63;;;21.92;23.56
73103;BME280;61294;65.988;29.172;2023-06-10T14:16:31;99497.78;;;21.66;23.19